Impacts TAF Board INFO
FOR SITUATIONAL AWARENESS. NOT TO BE USED FOR FLIGHT PLANNING PURPOSES.
IDs:

KSFO - San Francisco Intl, CA, US

Issued at 0906 UTC 23 May 2018
Updated at 1109 UTC 23 May 2018
Potential Impact None Slight Moderate High
Time<<24/00Z 24/01Z 24/02Z 24/03Z 24/04Z 24/05Z 24/06Z 24/07Z 24/08Z 24/09Z 24/10Z 24/11Z 24/12Z>>
Type PRVL PRVL PRVL PRVL PRVL PRVL PRVL PRVL PRVL PRVL PRVL PRVL
VIS >6 >6 >6 >6 >6 >6 >6 >6 >6 >6 >6 >6
CIG 20 20 20 -- -- -- 10 10 10 10 10 10
Cover BKN BKN BKN SCT SCT SCT OVC OVC OVC OVC OVC OVC
FltCat MVFR MVFR MVFR VFR VFR VFR MVFR MVFR MVFR MVFR MVFR MVFR
WX -- -- -- -- -- -- -- -- -- -- -- --
WDir 250 250 250 250 250 250 250 250 250 250 250 250
WSpd 15 15 15 9 9 9 6 6 6 6 6 6
WGst -- -- -- -- -- -- -- -- -- -- -- --

Raw TAF
KSFO 230906Z 2309/2412 24006KT P6SM FEW006 BKN015 OVC018
  FM231800 25008KT P6SM SCT010 OVC018
  FM232100 25015KT P6SM SCT012 BKN020
  FM240300 25009KT P6SM FEW012 SCT015
  FM240600 25006KT P6SM FEW008 BKN010 OVC012


METAR Board
Radar Display
Forecast Discussion

FOR SITUATIONAL AWARENESS. NOT TO BE USED FOR FLIGHT PLANNING PURPOSES.